Time;durP1;ratioP1;P1;durP2;ratioP2;P2;SDS_P1;SDS_P2;PMS_P1;PMS_P2;Temp;Humidity;BMP_temperature;BMP_pressure;BME280_temperature;BME280_humidity;BME280_pressure;Samples;Min_cycle;Max_cycle;Signal;HPM_P1;HPM_P2
2023/05/23 00:00:32;;;;;;;10.85;9.30;;;;;;;;;;5014420;28;20506;-79
2023/05/23 00:02:59;;;;;;;17.77;10.93;;;;;;;;;;5013359;28;20040;-80
2023/05/23 00:05:25;;;;;;;12.10;10.38;;;;;;;;;;5014594;28;20081;-80
2023/05/23 00:07:52;;;;;;;12.20;10.93;;;;;;;;;;5017493;28;20033;-80
2023/05/23 00:10:19;;;;;;;21.10;12.27;;;;;;;;;;5000561;28;20045;-80
2023/05/23 00:12:46;;;;;;;15.98;11.38;;;;;;;;;;5019967;28;20037;-80
2023/05/23 00:15:13;;;;;;;13.00;11.77;;;;;;;;;;5018345;28;20038;-80
2023/05/23 00:17:39;;;;;;;14.00;11.82;;;;;;;;;;5017823;28;20049;-80
2023/05/23 00:20:08;;;;;;;15.55;13.32;;;;;;;;;;5018929;28;20100;-80
2023/05/23 00:22:35;;;;;;;18.23;11.48;;;;;;;;;;5017216;28;20061;-80
2023/05/23 00:25:01;;;;;;;12.77;10.70;;;;;;;;;;4998405;28;20104;-80
2023/05/23 00:27:30;;;;;;;13.02;11.68;;;;;;;;;;4970870;28;20521;-79
2023/05/23 00:29:56;;;;;;;11.45;10.25;;;;;;;;;;4993927;28;20050;-79
2023/05/23 00:32:22;;;;;;;12.10;10.93;;;;;;;;;;4994540;28;20102;-80
2023/05/23 00:34:48;;;;;;;20.75;11.68;;;;;;;;;;4997549;28;20084;-80
2023/05/23 00:37:15;;;;;;;15.98;11.48;;;;;;;;;;4995981;28;20058;-79
2023/05/23 00:39:41;;;;;;;21.67;11.02;;;;;;;;;;4992339;28;20645;-79
2023/05/23 00:42:07;;;;;;;15.75;11.88;;;;;;;;;;4975806;28;20042;-81
2023/05/23 00:44:33;;;;;;;15.20;11.27;;;;;;;;;;4960335;28;20105;-80
2023/05/23 00:47:00;;;;;;;17.42;10.82;;;;;;;;;;4984992;28;20042;-80
2023/05/23 00:49:26;;;;;;;16.08;11.52;;;;;;;;;;4970513;28;20130;-80
2023/05/23 00:51:53;;;;;;;18.83;11.32;;;;;;;;;;5004772;28;20417;-80
2023/05/23 00:54:20;;;;;;;13.23;10.13;;;;;;;;;;5008075;28;20030;-80
2023/05/23 00:56:47;;;;;;;15.25;10.35;;;;;;;;;;4998328;28;20053;-80
2023/05/23 00:59:13;;;;;;;13.27;10.85;;;;;;;;;;5008736;28;20073;-79
2023/05/23 01:01:40;;;;;;;14.52;12.07;;;;;;;;;;4988998;28;20062;-81
2023/05/23 01:04:06;;;;;;;14.10;10.57;;;;;;;;;;4990975;28;20077;-79
2023/05/23 01:06:32;;;;;;;13.90;11.77;;;;;;;;;;4967571;28;20042;-79
2023/05/23 01:09:01;;;;;;;14.63;11.38;;;;;;;;;;4980666;28;20045;-78
2023/05/23 01:11:47;;;;;;;13.75;9.05;;;;;;;;;;4998654;28;20069;-80
2023/05/23 01:14:18;;;;;;;13.82;9.73;;;;;;;;;;5002520;28;20077;-82
2023/05/23 01:16:47;;;;;;;12.40;9.13;;;;;;;;;;4986944;28;20129;-80
2023/05/23 01:19:21;;;;;;;12.43;9.43;;;;;;;;;;4981634;28;20511;-79
2023/05/23 01:21:51;;;;;;;10.50;8.68;;;;;;;;;;4979111;28;20414;-79
2023/05/23 01:24:25;;;;;;;17.55;9.50;;;;;;;;;;4989494;28;20053;-78
2023/05/23 01:26:54;;;;;;;10.35;9.13;;;;;;;;;;5017824;28;20060;-81
2023/05/23 01:29:33;;;;;;;10.45;9.30;;;;;;;;;;5002099;28;20072;-80
2023/05/23 01:31:59;;;;;;;10.00;8.25;;;;;;;;;;5019000;28;20414;-81
2023/05/23 01:34:26;;;;;;;8.90;8.15;;;;;;;;;;5021834;28;20118;-80
2023/05/23 01:36:54;;;;;;;12.77;8.82;;;;;;;;;;4987713;28;20041;-81
2023/05/23 01:39:20;;;;;;;9.30;8.40;;;;;;;;;;5024270;28;20037;-80
2023/05/23 01:41:47;;;;;;;11.45;8.73;;;;;;;;;;5023092;28;20049;-81
2023/05/23 01:44:14;;;;;;;12.15;9.70;;;;;;;;;;5006199;28;20065;-80
2023/05/23 01:46:40;;;;;;;12.45;8.75;;;;;;;;;;5008429;28;20042;-80
2023/05/23 01:49:07;;;;;;;11.70;9.15;;;;;;;;;;5003316;28;20108;-80
2023/05/23 01:51:33;;;;;;;11.43;8.57;;;;;;;;;;5021959;28;20037;-80
2023/05/23 01:54:00;;;;;;;16.55;8.55;;;;;;;;;;5002491;28;20055;-78
2023/05/23 01:56:27;;;;;;;13.63;8.13;;;;;;;;;;4969436;28;20037;-79
2023/05/23 01:58:53;;;;;;;16.30;9.30;;;;;;;;;;4985605;28;20041;-79
2023/05/23 02:01:20;;;;;;;8.90;7.88;;;;;;;;;;4998764;28;20076;-78
2023/05/23 02:03:46;;;;;;;10.82;8.38;;;;;;;;;;4966223;28;20518;-78
2023/05/23 02:06:12;;;;;;;9.07;8.27;;;;;;;;;;4994977;28;20057;-77
2023/05/23 02:08:38;;;;;;;11.30;8.43;;;;;;;;;;5016218;28;20069;-78
2023/05/23 02:11:07;;;;;;;8.95;8.10;;;;;;;;;;5001114;28;20539;-77
2023/05/23 02:13:34;;;;;;;9.63;8.23;;;;;;;;;;4975794;28;20762;-78
2023/05/23 02:16:00;;;;;;;12.50;8.80;;;;;;;;;;5009907;28;20080;-77
2023/05/23 02:18:28;;;;;;;11.48;8.10;;;;;;;;;;4987766;28;20400;-78
2023/05/23 02:21:14;;;;;;;17.42;9.15;;;;;;;;;;4999301;28;20088;-77
2023/05/23 02:23:40;;;;;;;10.93;8.32;;;;;;;;;;4979765;28;20053;-78
2023/05/23 02:26:07;;;;;;;15.25;8.07;;;;;;;;;;4978956;28;20041;-76
2023/05/23 02:28:35;;;;;;;10.35;7.82;;;;;;;;;;4994770;28;20041;-76
2023/05/23 02:31:01;;;;;;;10.73;8.10;;;;;;;;;;5012381;28;20451;-76
2023/05/23 02:33:27;;;;;;;13.52;8.43;;;;;;;;;;5012230;28;20517;-76
2023/05/23 02:35:54;;;;;;;13.30;7.85;;;;;;;;;;4994715;28;20050;-77
2023/05/23 02:38:20;;;;;;;11.00;7.70;;;;;;;;;;4994710;28;20120;-76
2023/05/23 02:40:46;;;;;;;8.25;7.40;;;;;;;;;;4994331;28;20054;-78
2023/05/23 02:43:12;;;;;;;9.88;7.43;;;;;;;;;;4994961;28;20037;-76
2023/05/23 02:45:38;;;;;;;13.65;7.63;;;;;;;;;;5001808;28;20049;-76
2023/05/23 02:48:04;;;;;;;16.95;8.15;;;;;;;;;;5001001;28;20502;-77
2023/05/23 02:50:30;;;;;;;10.10;8.07;;;;;;;;;;5011681;28;20407;-75
2023/05/23 02:52:56;;;;;;;12.68;8.02;;;;;;;;;;5011563;28;20509;-77
2023/05/23 02:55:22;;;;;;;8.68;7.88;;;;;;;;;;4994051;28;20116;-76
2023/05/23 02:57:50;;;;;;;8.50;7.47;;;;;;;;;;4993761;28;20661;-76
2023/05/23 03:00:16;;;;;;;11.50;8.20;;;;;;;;;;4993569;28;20053;-76
2023/05/23 03:02:47;;;;;;;9.40;7.95;;;;;;;;;;4975072;28;20483;-76
2023/05/23 03:05:13;;;;;;;16.13;7.28;;;;;;;;;;4974511;28;20056;-76
2023/05/23 03:07:39;;;;;;;8.65;7.50;;;;;;;;;;4974177;28;20046;-76
2023/05/23 03:10:06;;;;;;;11.82;7.53;;;;;;;;;;4974370;28;20053;-76
2023/05/23 03:12:32;;;;;;;7.65;6.93;;;;;;;;;;4992548;28;20046;-78
2023/05/23 03:14:58;;;;;;;9.82;7.72;;;;;;;;;;4993917;28;20045;-77
2023/05/23 03:17:24;;;;;;;10.35;8.60;;;;;;;;;;4977182;28;20108;-78
2023/05/23 03:19:50;;;;;;;13.57;7.28;;;;;;;;;;4973971;28;20114;-76
2023/05/23 03:22:17;;;;;;;15.70;7.97;;;;;;;;;;4974368;28;20046;-77
2023/05/23 03:24:43;;;;;;;9.20;7.28;;;;;;;;;;4960647;28;20059;-77
2023/05/23 03:27:11;;;;;;;13.30;8.55;;;;;;;;;;4982255;28;20046;-78
2023/05/23 03:29:38;;;;;;;8.40;7.15;;;;;;;;;;4958081;28;20070;-78
2023/05/23 03:32:12;;;;;;;8.90;8.00;;;;;;;;;;4974263;28;20077;-77
2023/05/23 03:34:38;;;;;;;8.40;7.55;;;;;;;;;;4974046;28;20048;-78
2023/05/23 03:37:06;;;;;;;11.25;7.70;;;;;;;;;;4973828;28;20038;-77
2023/05/23 03:39:32;;;;;;;11.85;7.65;;;;;;;;;;4973526;28;20042;-78
2023/05/23 03:41:58;;;;;;;8.57;7.50;;;;;;;;;;4973982;28;20078;-77
2023/05/23 03:44:24;;;;;;;10.18;7.72;;;;;;;;;;4957754;28;20081;-77
2023/05/23 03:46:51;;;;;;;11.40;7.60;;;;;;;;;;4957305;28;20046;-78
2023/05/23 03:49:17;;;;;;;11.93;7.88;;;;;;;;;;4974750;28;20042;-78
2023/05/23 03:51:42;;;;;;;10.63;7.47;;;;;;;;;;4974438;28;20096;-78
2023/05/23 03:54:11;;;;;;;8.93;7.18;;;;;;;;;;4975044;28;20142;-78
2023/05/23 03:56:37;;;;;;;10.82;6.82;;;;;;;;;;4973625;28;20136;-78
2023/05/23 03:59:03;;;;;;;11.18;7.45;;;;;;;;;;4973966;28;20054;-78
2023/05/23 04:01:29;;;;;;;13.88;6.95;;;;;;;;;;4973432;28;20518;-78
2023/05/23 04:03:56;;;;;;;7.55;6.75;;;;;;;;;;4973536;28;20046;-79
2023/05/23 04:06:23;;;;;;;11.73;7.40;;;;;;;;;;4973533;28;20054;-77
2023/05/23 04:08:50;;;;;;;15.75;6.80;;;;;;;;;;4973473;28;20038;-76
2023/05/23 04:11:16;;;;;;;11.70;7.63;;;;;;;;;;4957465;28;20043;-78
2023/05/23 04:13:42;;;;;;;7.68;6.95;;;;;;;;;;4973401;28;20038;-79
2023/05/23 04:16:10;;;;;;;10.43;6.65;;;;;;;;;;4990112;28;20038;-75
2023/05/23 04:18:37;;;;;;;9.70;6.25;;;;;;;;;;4973137;28;20579;-77
2023/05/23 04:21:05;;;;;;;9.35;7.35;;;;;;;;;;4971158;28;20038;-78
2023/05/23 04:23:33;;;;;;;16.40;7.28;;;;;;;;;;4977534;28;20053;-77
2023/05/23 04:26:00;;;;;;;8.55;6.80;;;;;;;;;;4993458;28;20128;-79
2023/05/23 04:28:32;;;;;;;13.32;7.25;;;;;;;;;;4993570;28;20414;-77
2023/05/23 04:31:01;;;;;;;9.13;6.88;;;;;;;;;;4998003;28;20133;-84
2023/05/23 04:33:30;;;;;;;11.85;7.50;;;;;;;;;;4992522;28;20052;-80
2023/05/23 04:35:56;;;;;;;10.60;7.25;;;;;;;;;;5007401;28;20049;-81
2023/05/23 04:38:24;;;;;;;14.57;6.78;;;;;;;;;;5028234;28;20045;-83
2023/05/23 04:40:51;;;;;;;13.35;7.05;;;;;;;;;;5004284;28;20038;-80
2023/05/23 04:43:45;;;;;;;8.07;7.38;;;;;;;;;;5002321;28;20085;-81
2023/05/23 04:46:17;;;;;;;13.20;6.90;;;;;;;;;;4987979;28;20453;-80
2023/05/23 04:48:45;;;;;;;9.35;6.75;;;;;;;;;;5018139;28;20045;-81
2023/05/23 04:51:11;;;;;;;11.07;6.97;;;;;;;;;;5004681;28;20050;-81
2023/05/23 04:53:44;;;;;;;12.18;8.23;;;;;;;;;;4981238;28;20113;-80
2023/05/23 04:56:11;;;;;;;9.98;7.18;;;;;;;;;;4988490;28;20034;-74
2023/05/23 04:58:41;;;;;;;8.75;6.65;;;;;;;;;;5002986;28;20550;-76
2023/05/23 05:01:09;;;;;;;10.40;7.43;;;;;;;;;;4992311;28;20041;-76
2023/05/23 05:03:35;;;;;;;10.60;8.13;;;;;;;;;;4994131;28;20536;-80
2023/05/23 05:06:03;;;;;;;11.82;7.85;;;;;;;;;;4967087;28;20046;-81
2023/05/23 05:08:30;;;;;;;13.20;8.35;;;;;;;;;;4999374;28;20053;-82
2023/05/23 05:10:56;;;;;;;12.90;7.82;;;;;;;;;;4996808;28;20149;-77
2023/05/23 05:13:22;;;;;;;11.77;8.25;;;;;;;;;;4994797;28;20068;-78
2023/05/23 05:15:51;;;;;;;11.90;8.02;;;;;;;;;;4993313;28;20057;-80
2023/05/23 05:18:18;;;;;;;10.18;7.78;;;;;;;;;;4989159;28;20053;-78
2023/05/23 05:20:46;;;;;;;12.02;7.03;;;;;;;;;;4981322;28;20448;-79
2023/05/23 05:23:13;;;;;;;14.40;6.68;;;;;;;;;;4998613;28;20044;-80
2023/05/23 05:25:40;;;;;;;11.52;6.32;;;;;;;;;;4981053;28;20057;-82
2023/05/23 05:28:07;;;;;;;13.35;6.40;;;;;;;;;;4996273;28;20111;-78
2023/05/23 05:30:38;;;;;;;12.93;6.80;;;;;;;;;;5005108;28;20057;-79
2023/05/23 05:33:04;;;;;;;9.60;6.55;;;;;;;;;;4996476;28;20308;-80
2023/05/23 05:35:32;;;;;;;11.80;6.03;;;;;;;;;;5014573;28;20141;-81
2023/05/23 05:37:58;;;;;;;12.25;6.50;;;;;;;;;;4999748;28;20049;-78
2023/05/23 05:40:24;;;;;;;13.38;6.88;;;;;;;;;;5014518;28;20046;-80
2023/05/23 05:42:50;;;;;;;7.05;6.15;;;;;;;;;;5016654;28;20129;-81
2023/05/23 05:45:16;;;;;;;9.30;6.57;;;;;;;;;;5034487;28;20053;-80
2023/05/23 05:47:44;;;;;;;7.97;5.80;;;;;;;;;;5001183;28;20042;-79
2023/05/23 05:50:10;;;;;;;10.85;6.40;;;;;;;;;;4967985;28;20045;-79
2023/05/23 05:52:38;;;;;;;16.10;6.40;;;;;;;;;;5001233;28;20493;-79
2023/05/23 05:55:06;;;;;;;9.05;5.60;;;;;;;;;;5017139;28;20038;-79
2023/05/23 05:57:32;;;;;;;7.13;6.03;;;;;;;;;;5000416;28;20058;-78
2023/05/23 05:59:59;;;;;;;8.13;5.53;;;;;;;;;;4984010;28;20052;-80
2023/05/23 06:02:26;;;;;;;11.48;5.88;;;;;;;;;;4982106;28;20309;-80
2023/05/23 06:04:52;;;;;;;10.00;6.70;;;;;;;;;;4981330;28;20144;-81
2023/05/23 06:07:18;;;;;;;6.30;5.70;;;;;;;;;;5007771;28;20112;-79
2023/05/23 06:09:45;;;;;;;10.68;6.00;;;;;;;;;;5015267;28;20399;-78
2023/05/23 06:12:11;;;;;;;6.80;5.45;;;;;;;;;;4994094;28;20622;-78
2023/05/23 06:14:37;;;;;;;8.15;6.18;;;;;;;;;;5013265;28;20054;-78
2023/05/23 06:17:03;;;;;;;8.82;5.88;;;;;;;;;;4996200;28;20129;-80
2023/05/23 06:19:29;;;;;;;10.88;6.72;;;;;;;;;;4998385;28;20517;-77
2023/05/23 06:21:56;;;;;;;8.68;6.10;;;;;;;;;;5003679;28;20046;-81
2023/05/23 06:24:23;;;;;;;10.77;5.57;;;;;;;;;;5002998;28;20477;-78
2023/05/23 06:26:48;;;;;;;7.18;5.68;;;;;;;;;;5025331;28;20052;-79
2023/05/23 06:29:14;;;;;;;9.43;5.32;;;;;;;;;;5006286;28;20049;-80
2023/05/23 06:31:40;;;;;;;9.95;6.05;;;;;;;;;;5024656;28;20118;-79
2023/05/23 06:34:06;;;;;;;6.68;5.40;;;;;;;;;;4989485;28;20529;-81
2023/05/23 06:36:32;;;;;;;7.93;6.10;;;;;;;;;;4980998;28;20072;-81
2023/05/23 06:38:58;;;;;;;20.83;6.10;;;;;;;;;;4995361;28;20085;-80
2023/05/23 06:41:26;;;;;;;5.13;4.63;;;;;;;;;;4996255;28;20037;-79
2023/05/23 06:43:52;;;;;;;7.28;5.57;;;;;;;;;;4980015;28;20131;-79
2023/05/23 06:46:23;;;;;;;20.30;5.75;;;;;;;;;;4978828;28;20042;-77
2023/05/23 06:48:49;;;;;;;9.52;5.65;;;;;;;;;;4978810;28;20048;-79
2023/05/23 06:51:16;;;;;;;12.20;5.88;;;;;;;;;;4994818;28;20049;-78
2023/05/23 06:53:42;;;;;;;11.65;5.38;;;;;;;;;;4982984;28;20069;-78
2023/05/23 06:56:08;;;;;;;10.23;5.82;;;;;;;;;;4995348;28;20042;-80
2023/05/23 06:58:43;;;;;;;7.95;5.28;;;;;;;;;;5004614;28;20046;-79
2023/05/23 07:01:10;;;;;;;8.65;5.45;;;;;;;;;;5006535;28;20347;-79
2023/05/23 07:03:44;;;;;;;8.38;5.03;;;;;;;;;;4984670;28;20061;-84
2023/05/23 07:06:11;;;;;;;5.97;4.63;;;;;;;;;;4998968;28;20048;-80
2023/05/23 07:08:39;;;;;;;15.60;4.80;;;;;;;;;;4994675;28;20196;-78
2023/05/23 07:11:05;;;;;;;7.07;4.90;;;;;;;;;;4945379;28;20053;-76
2023/05/23 07:13:40;;;;;;;8.43;4.22;;;;;;;;;;4963531;28;20065;-78
2023/05/23 07:16:08;;;;;;;10.00;4.68;;;;;;;;;;4961665;28;20038;-79
2023/05/23 07:18:42;;;;;;;7.60;4.50;;;;;;;;;;4979090;28;20046;-78
2023/05/23 07:21:08;;;;;;;6.28;3.80;;;;;;;;;;4975244;28;20125;-81
2023/05/23 07:23:35;;;;;;;6.63;4.28;;;;;;;;;;4993578;28;20050;-81
2023/05/23 07:26:03;;;;;;;6.25;3.88;;;;;;;;;;4994183;28;20042;-80
2023/05/23 07:28:50;;;;;;;8.45;4.63;;;;;;;;;;5015727;28;20038;-79
2023/05/23 07:31:16;;;;;;;5.30;4.80;;;;;;;;;;4991292;28;20049;-81
2023/05/23 07:33:43;;;;;;;13.80;4.78;;;;;;;;;;4992074;28;20117;-79
2023/05/23 07:36:12;;;;;;;8.57;4.20;;;;;;;;;;4961129;28;20045;-79
2023/05/23 07:38:38;;;;;;;6.60;4.75;;;;;;;;;;4992903;28;20038;-78
2023/05/23 07:41:04;;;;;;;11.30;4.05;;;;;;;;;;4993035;28;20055;-78
2023/05/23 07:43:30;;;;;;;6.22;4.50;;;;;;;;;;4960672;28;20034;-78
2023/05/23 07:45:57;;;;;;;9.15;5.00;;;;;;;;;;4992738;28;20061;-79
2023/05/23 07:48:25;;;;;;;7.63;5.15;;;;;;;;;;4992575;28;20060;-79
2023/05/23 07:50:54;;;;;;;6.90;4.45;;;;;;;;;;4992752;28;20443;-78
2023/05/23 07:53:21;;;;;;;4.63;4.18;;;;;;;;;;4992458;28;20125;-79
2023/05/23 07:55:47;;;;;;;5.53;4.53;;;;;;;;;;4992807;28;20561;-79
2023/05/23 07:58:14;;;;;;;15.15;6.43;;;;;;;;;;4955407;28;20034;-76
2023/05/23 08:00:41;;;;;;;8.52;5.38;;;;;;;;;;4974342;28;20042;-79
2023/05/23 08:03:18;;;;;;;10.00;5.60;;;;;;;;;;4992031;28;20077;-75
2023/05/23 08:05:55;;;;;;;5.50;4.57;;;;;;;;;;4993202;28;20470;-75
2023/05/23 08:08:21;;;;;;;5.90;4.95;;;;;;;;;;4995299;28;20045;-75
2023/05/23 08:10:48;;;;;;;8.75;5.00;;;;;;;;;;4991643;28;20107;-75
2023/05/23 08:13:21;;;;;;;7.47;4.90;;;;;;;;;;4991590;28;20050;-79
2023/05/23 08:16:06;;;;;;;7.35;4.63;;;;;;;;;;5011047;28;20034;-78
2023/05/23 08:18:33;;;;;;;7.07;4.30;;;;;;;;;;4991607;28;20077;-82
2023/05/23 08:21:01;;;;;;;7.82;5.05;;;;;;;;;;4981268;28;20046;-79
2023/05/23 08:23:28;;;;;;;6.88;4.95;;;;;;;;;;4991715;28;20057;-78
2023/05/23 08:25:56;;;;;;;4.72;4.30;;;;;;;;;;5009419;28;20632;-78
2023/05/23 08:28:22;;;;;;;9.05;4.65;;;;;;;;;;4991644;28;20041;-79
2023/05/23 08:30:53;;;;;;;8.75;5.20;;;;;;;;;;4991798;28;20034;-78
2023/05/23 08:33:19;;;;;;;4.65;4.25;;;;;;;;;;4991693;28;20052;-78
2023/05/23 08:35:48;;;;;;;8.15;4.93;;;;;;;;;;4992053;28;20034;-78
2023/05/23 08:38:17;;;;;;;6.75;4.47;;;;;;;;;;4975892;28;20051;-77
2023/05/23 08:40:56;;;;;;;12.20;5.32;;;;;;;;;;4991769;28;20026;-79
2023/05/23 08:43:23;;;;;;;6.70;4.72;;;;;;;;;;4991497;28;20041;-79
2023/05/23 08:45:50;;;;;;;7.50;4.70;;;;;;;;;;4958621;28;20180;-80
2023/05/23 08:48:15;;;;;;;15.75;5.57;;;;;;;;;;5010854;28;20033;-80
2023/05/23 08:50:46;;;;;;;7.50;4.97;;;;;;;;;;4989424;28;20082;-77
2023/05/23 08:53:18;;;;;;;7.35;4.80;;;;;;;;;;4959508;28;20622;-79
2023/05/23 08:55:45;;;;;;;5.10;4.55;;;;;;;;;;4975629;28;20050;-81
2023/05/23 08:58:12;;;;;;;5.80;4.45;;;;;;;;;;4975462;28;20045;-74
2023/05/23 09:00:47;;;;;;;6.20;5.18;;;;;;;;;;4991846;28;20463;-79
2023/05/23 09:03:13;;;;;;;7.40;5.25;;;;;;;;;;5008797;28;20453;-77
2023/05/23 09:06:06;;;;;;;5.45;4.70;;;;;;;;;;4979803;28;20048;-78
2023/05/23 09:08:33;;;;;;;9.90;5.75;;;;;;;;;;4991295;28;20049;-77
2023/05/23 09:11:03;;;;;;;5.53;5.03;;;;;;;;;;4991421;28;20129;-78
2023/05/23 09:13:32;;;;;;;6.65;5.35;;;;;;;;;;4991354;28;20481;-77
2023/05/23 09:16:00;;;;;;;8.30;5.07;;;;;;;;;;4993263;28;20480;-77
2023/05/23 09:18:39;;;;;;;9.45;5.15;;;;;;;;;;4979330;28;20046;-78
2023/05/23 09:21:07;;;;;;;6.88;5.13;;;;;;;;;;4988429;28;20047;-78
2023/05/23 09:23:35;;;;;;;4.50;4.10;;;;;;;;;;4982396;28;20128;-78
2023/05/23 09:26:05;;;;;;;7.07;3.92;;;;;;;;;;4993908;28;20042;-77
2023/05/23 09:28:32;;;;;;;5.20;3.90;;;;;;;;;;5001064;28;20049;-77
2023/05/23 09:30:59;;;;;;;4.00;3.70;;;;;;;;;;4976858;28;20105;-77
2023/05/23 09:33:30;;;;;;;4.50;4.20;;;;;;;;;;4978251;28;20153;-77
2023/05/23 09:35:56;;;;;;;5.05;4.43;;;;;;;;;;4991368;28;20387;-77
2023/05/23 09:38:23;;;;;;;11.38;4.80;;;;;;;;;;5001057;28;20042;-77
2023/05/23 09:40:49;;;;;;;5.35;4.07;;;;;;;;;;4995983;28;20038;-80
2023/05/23 09:43:14;;;;;;;9.93;4.78;;;;;;;;;;4992536;28;20070;-82
2023/05/23 09:45:40;;;;;;;7.35;5.10;;;;;;;;;;5004514;28;20050;-81
2023/05/23 09:48:10;;;;;;;4.80;4.40;;;;;;;;;;4995261;28;20470;-80
2023/05/23 09:50:36;;;;;;;5.88;4.78;;;;;;;;;;4981148;28;20103;-81
2023/05/23 09:53:03;;;;;;;6.28;3.97;;;;;;;;;;4978838;28;20091;-79
2023/05/23 09:55:29;;;;;;;5.60;5.05;;;;;;;;;;5012129;28;20458;-82
2023/05/23 09:57:59;;;;;;;6.22;5.40;;;;;;;;;;4996667;28;20065;-79
2023/05/23 10:00:25;;;;;;;6.22;5.57;;;;;;;;;;4998650;28;20039;-79
2023/05/23 10:02:54;;;;;;;6.70;5.90;;;;;;;;;;4994668;28;20135;-78
2023/05/23 10:05:30;;;;;;;4.15;3.85;;;;;;;;;;4992478;28;20132;-76
2023/05/23 10:08:01;;;;;;;6.30;5.70;;;;;;;;;;4985731;28;20049;-80
2023/05/23 10:10:29;;;;;;;4.70;4.28;;;;;;;;;;4998655;28;20042;-73
2023/05/23 10:12:55;;;;;;;8.75;6.85;;;;;;;;;;4993324;28;20045;-74
2023/05/23 10:15:22;;;;;;;7.88;6.70;;;;;;;;;;4994162;28;20091;-76
2023/05/23 10:18:01;;;;;;;7.30;6.70;;;;;;;;;;4994252;28;20041;-77
2023/05/23 10:20:30;;;;;;;7.43;6.68;;;;;;;;;;4994065;28;20041;-76
2023/05/23 10:23:00;;;;;;;6.78;6.25;;;;;;;;;;5011698;28;20505;-76
2023/05/23 10:25:26;;;;;;;7.65;7.05;;;;;;;;;;5014093;28;20050;-75
2023/05/23 10:27:57;;;;;;;8.82;8.02;;;;;;;;;;5018667;28;20105;-75
2023/05/23 10:30:24;;;;;;;8.38;7.60;;;;;;;;;;5004160;28;20038;-74
2023/05/23 10:32:50;;;;;;;9.10;7.75;;;;;;;;;;5015840;28;20068;-75
2023/05/23 10:35:22;;;;;;;10.40;7.20;;;;;;;;;;5001036;28;20046;-74
2023/05/23 10:37:52;;;;;;;10.05;8.57;;;;;;;;;;5007425;28;20041;-77
2023/05/23 10:40:30;;;;;;;6.82;6.20;;;;;;;;;;4977309;28;20128;-77
2023/05/23 10:43:05;;;;;;;9.88;8.70;;;;;;;;;;4993187;28;20108;-75
2023/05/23 10:45:38;;;;;;;7.80;7.13;;;;;;;;;;4993254;28;20164;-76
2023/05/23 10:48:04;;;;;;;9.18;8.38;;;;;;;;;;4961068;28;20544;-75
2023/05/23 10:50:35;;;;;;;8.88;8.07;;;;;;;;;;4977504;28;20120;-78
2023/05/23 10:53:03;;;;;;;10.63;8.98;;;;;;;;;;4979929;28;20050;-76
2023/05/23 10:55:32;;;;;;;9.40;8.45;;;;;;;;;;4989150;28;20033;-74
2023/05/23 10:58:12;;;;;;;10.27;9.25;;;;;;;;;;4992164;28;20060;-77
2023/05/23 11:00:37;;;;;;;11.27;8.48;;;;;;;;;;4993612;28;20130;-80
2023/05/23 11:03:04;;;;;;;10.32;9.32;;;;;;;;;;5028431;28;20179;-74
2023/05/23 11:05:32;;;;;;;9.50;8.63;;;;;;;;;;5028808;28;20551;-77
2023/05/23 11:08:15;;;;;;;11.52;8.65;;;;;;;;;;4978412;28;20115;-75
2023/05/23 11:10:53;;;;;;;8.30;7.53;;;;;;;;;;4997333;28;20032;-76
2023/05/23 11:13:20;;;;;;;11.00;10.10;;;;;;;;;;4978016;28;20068;-75
2023/05/23 11:15:46;;;;;;;9.68;8.80;;;;;;;;;;5006121;28;20045;-76
2023/05/23 11:18:18;;;;;;;9.43;8.00;;;;;;;;;;5012650;28;20140;-75
2023/05/23 11:20:46;;;;;;;9.63;8.73;;;;;;;;;;5032565;28;20033;-77
2023/05/23 11:23:12;;;;;;;10.93;9.02;;;;;;;;;;4993389;28;20053;-76
2023/05/23 11:25:41;;;;;;;12.35;8.82;;;;;;;;;;5010910;28;20418;-76
2023/05/23 11:28:07;;;;;;;11.07;8.38;;;;;;;;;;5024385;28;20045;-76
2023/05/23 11:30:35;;;;;;;10.88;7.55;;;;;;;;;;5030191;28;20047;-76
2023/05/23 11:33:02;;;;;;;16.30;10.80;;;;;;;;;;5030125;28;20044;-77
2023/05/23 11:35:29;;;;;;;11.02;8.07;;;;;;;;;;4996554;28;20131;-75
2023/05/23 11:37:56;;;;;;;9.70;8.18;;;;;;;;;;5030095;28;20057;-76
2023/05/23 11:40:26;;;;;;;12.63;8.18;;;;;;;;;;5030003;28;20583;-76
2023/05/23 11:42:55;;;;;;;10.20;7.95;;;;;;;;;;5030168;28;20050;-78
2023/05/23 11:45:22;;;;;;;8.52;7.70;;;;;;;;;;5030085;28;20053;-76
2023/05/23 11:47:48;;;;;;;10.27;7.35;;;;;;;;;;5029843;28;20049;-76
2023/05/23 11:50:19;;;;;;;10.02;7.75;;;;;;;;;;5011954;28;20056;-76
2023/05/23 11:52:50;;;;;;;7.53;6.65;;;;;;;;;;5029552;28;20038;-75
2023/05/23 11:55:22;;;;;;;7.45;6.85;;;;;;;;;;5004990;28;20042;-76
2023/05/23 11:57:49;;;;;;;12.07;7.60;;;;;;;;;;5010886;28;20049;-75
2023/05/23 12:00:15;;;;;;;12.57;6.30;;;;;;;;;;5019801;28;20053;-80
2023/05/23 12:02:41;;;;;;;6.85;6.03;;;;;;;;;;4983826;28;20073;-77
2023/05/23 12:05:12;;;;;;;7.07;6.38;;;;;;;;;;5028677;28;20739;-79
2023/05/23 12:07:48;;;;;;;7.43;6.00;;;;;;;;;;5013217;28;20044;-77
2023/05/23 12:10:15;;;;;;;7.53;5.82;;;;;;;;;;4990325;28;20038;-77
2023/05/23 12:12:42;;;;;;;6.82;6.00;;;;;;;;;;4991527;28;20030;-76
2023/05/23 12:15:08;;;;;;;5.68;5.22;;;;;;;;;;4975113;28;20038;-77
2023/05/23 12:17:35;;;;;;;8.98;6.30;;;;;;;;;;5008154;28;20053;-76
2023/05/23 12:20:03;;;;;;;7.72;5.88;;;;;;;;;;4991251;28;20109;-77
2023/05/23 12:22:30;;;;;;;6.20;5.60;;;;;;;;;;4991720;28;20096;-77
2023/05/23 12:24:56;;;;;;;6.63;6.03;;;;;;;;;;4976236;28;20050;-76
2023/05/23 12:27:28;;;;;;;5.88;5.38;;;;;;;;;;4992532;28;20584;-77
2023/05/23 12:30:06;;;;;;;6.10;5.30;;;;;;;;;;4976658;28;20045;-76
2023/05/23 12:32:33;;;;;;;8.88;5.50;;;;;;;;;;4992712;28;20050;-77
2023/05/23 12:34:59;;;;;;;9.02;6.00;;;;;;;;;;4992696;28;20061;-77
2023/05/23 12:37:25;;;;;;;9.65;5.65;;;;;;;;;;4976271;28;20429;-77
2023/05/23 12:39:51;;;;;;;14.20;5.22;;;;;;;;;;4992766;28;20060;-77
2023/05/23 12:42:16;;;;;;;10.18;5.93;;;;;;;;;;4976061;28;20589;-76
2023/05/23 12:44:44;;;;;;;8.93;5.70;;;;;;;;;;4992360;28;20191;-77
2023/05/23 12:47:10;;;;;;;7.32;5.68;;;;;;;;;;5009966;28;20124;-77
2023/05/23 12:49:37;;;;;;;9.82;6.00;;;;;;;;;;4976152;28;20629;-77
2023/05/23 12:52:03;;;;;;;11.35;5.95;;;;;;;;;;5013400;28;20127;-76
2023/05/23 12:54:29;;;;;;;15.43;5.30;;;;;;;;;;5013998;28;20038;-77
2023/05/23 12:56:55;;;;;;;5.28;4.65;;;;;;;;;;5013749;28;20044;-77
2023/05/23 12:59:22;;;;;;;6.07;4.93;;;;;;;;;;5013849;28;20038;-76
2023/05/23 13:01:48;;;;;;;8.73;5.00;;;;;;;;;;5013758;28;20414;-77
2023/05/23 13:04:14;;;;;;;5.68;5.13;;;;;;;;;;4963650;28;20046;-77
2023/05/23 13:06:40;;;;;;;10.60;4.63;;;;;;;;;;5010585;28;20042;-76
2023/05/23 13:09:06;;;;;;;6.40;4.90;;;;;;;;;;5013155;28;20038;-76
2023/05/23 13:11:32;;;;;;;6.00;5.38;;;;;;;;;;5011706;28;20045;-72
2023/05/23 13:13:58;;;;;;;4.55;4.25;;;;;;;;;;5012186;28;20046;-73
2023/05/23 13:16:24;;;;;;;8.27;4.50;;;;;;;;;;5022442;28;20133;-74
2023/05/23 13:18:51;;;;;;;8.70;4.90;;;;;;;;;;5032305;28;20131;-73
2023/05/23 13:21:17;;;;;;;7.75;5.65;;;;;;;;;;5032144;28;20049;-73
2023/05/23 13:23:43;;;;;;;10.95;6.75;;;;;;;;;;5014538;28;20048;-74
2023/05/23 13:26:09;;;;;;;7.65;5.78;;;;;;;;;;5012160;28;20422;-75
2023/05/23 13:28:35;;;;;;;8.70;5.35;;;;;;;;;;5022136;28;20041;-73
2023/05/23 13:31:02;;;;;;;7.15;5.45;;;;;;;;;;5014700;28;20081;-74
2023/05/23 13:33:28;;;;;;;5.78;5.28;;;;;;;;;;5014517;28;20037;-74
2023/05/23 13:35:54;;;;;;;8.93;5.20;;;;;;;;;;5031187;28;20571;-75
2023/05/23 13:38:20;;;;;;;6.43;5.75;;;;;;;;;;5011209;28;20065;-76
2023/05/23 13:40:46;;;;;;;7.15;5.80;;;;;;;;;;5000229;28;20037;-76
2023/05/23 13:43:12;;;;;;;19.90;6.15;;;;;;;;;;5001435;28;20049;-77
2023/05/23 13:45:38;;;;;;;8.98;6.53;;;;;;;;;;4996147;28;20493;-77
2023/05/23 13:48:04;;;;;;;8.23;6.00;;;;;;;;;;5011811;28;20041;-77
2023/05/23 13:50:30;;;;;;;6.10;5.38;;;;;;;;;;5016158;28;20662;-77
2023/05/23 13:52:56;;;;;;;11.93;5.85;;;;;;;;;;5013537;28;20099;-77
2023/05/23 13:55:22;;;;;;;8.63;5.40;;;;;;;;;;5011637;28;20041;-75
2023/05/23 13:57:48;;;;;;;6.43;5.90;;;;;;;;;;5011607;28;20045;-75
2023/05/23 14:00:15;;;;;;;8.32;5.40;;;;;;;;;;4994168;28;20046;-75
2023/05/23 14:02:41;;;;;;;6.82;5.65;;;;;;;;;;5011621;28;20438;-75
2023/05/23 14:05:07;;;;;;;6.07;5.45;;;;;;;;;;5013628;28;20053;-76
2023/05/23 14:07:33;;;;;;;6.85;5.50;;;;;;;;;;4993119;28;20077;-75
2023/05/23 14:09:59;;;;;;;7.95;6.22;;;;;;;;;;4993576;28;20429;-76
2023/05/23 14:12:25;;;;;;;7.93;6.20;;;;;;;;;;5007122;28;20042;-77
2023/05/23 14:14:52;;;;;;;8.52;6.53;;;;;;;;;;4993642;28;20552;-76
2023/05/23 14:17:17;;;;;;;7.53;6.60;;;;;;;;;;4993548;28;20046;-78
2023/05/23 14:19:44;;;;;;;14.82;7.60;;;;;;;;;;5011108;28;20038;-78
2023/05/23 14:22:10;;;;;;;16.20;7.97;;;;;;;;;;5010824;28;20379;-78
2023/05/23 14:24:36;;;;;;;10.23;7.05;;;;;;;;;;5010886;28;20518;-77
2023/05/23 14:27:03;;;;;;;12.27;7.28;;;;;;;;;;5010901;28;20088;-78
2023/05/23 14:29:29;;;;;;;13.38;6.63;;;;;;;;;;5009929;28;20108;-75
2023/05/23 14:31:55;;;;;;;7.50;6.75;;;;;;;;;;4993718;28;20049;-77
2023/05/23 14:34:21;;;;;;;9.52;6.50;;;;;;;;;;4977418;28;20052;-78
2023/05/23 14:36:47;;;;;;;11.15;6.60;;;;;;;;;;5006868;28;20058;-77
2023/05/23 14:39:14;;;;;;;9.10;6.47;;;;;;;;;;4991862;28;20113;-79